Time;durP1;ratioP1;P1;durP2;ratioP2;P2;SDS_P1;SDS_P2;PMS_P1;PMS_P2;Temp;Humidity;BMP_temperature;BMP_pressure;BME280_temperature;BME280_humidity;BME280_pressure;Samples;Min_cycle;Max_cycle;Signal;HPM_P1;HPM_P2
2022/12/17 13:08:03;;;;;;;5.80;3.00;;;;;;;23.99;45.92;94903.50;5047734;28;20037;-60
2022/12/17 13:10:29;;;;;;;5.03;2.85;;;;;;;24.04;45.47;94899.97;5061611;28;20074;-59
2022/12/17 13:12:55;;;;;;;5.75;3.30;;;;;;;23.29;45.97;94820.59;5023924;28;20056;-58
2022/12/17 13:15:34;;;;;;;4.63;2.97;;;;;;;23.37;45.74;94815.28;5048709;28;20040;-59
2022/12/17 13:18:15;;;;;;;5.63;3.03;;;;;;;23.98;44.56;94852.91;5028871;28;20052;-61
2022/12/17 13:20:40;;;;;;;5.13;3.20;;;;;;;24.16;44.57;94884.91;5027922;28;20048;-60
2022/12/17 13:23:08;;;;;;;5.38;3.00;;;;;;;24.13;44.54;94896.13;5043498;28;20055;-60
2022/12/17 13:25:34;;;;;;;4.80;3.08;;;;;;;24.00;45.19;94888.59;5061732;28;20024;-60
2022/12/17 13:28:00;;;;;;;4.65;2.85;;;;;;;23.74;45.77;94903.34;5062868;28;20063;-60
2022/12/17 13:30:31;;;;;;;6.00;3.72;;;;;;;23.81;45.50;94916.38;5027875;28;20048;-60
2022/12/17 13:33:16;;;;;;;3.58;2.92;;;;;;;23.98;45.46;94923.84;5024126;28;20049;-58
2022/12/17 13:35:43;;;;;;;7.35;3.45;;;;;;;23.86;45.89;94931.97;5052753;28;20386;-60
2022/12/17 13:38:31;;;;;;;5.45;3.38;;;;;;;23.90;45.10;94922.97;5060255;28;20044;-59
2022/12/17 13:41:11;;;;;;;5.25;3.35;;;;;;;24.10;44.62;94925.19;5049542;28;20572;-59
2022/12/17 13:43:50;;;;;;;4.93;3.20;;;;;;;23.36;45.08;94863.59;5063695;28;20039;-59
2022/12/17 13:46:23;;;;;;;4.75;3.30;;;;;;;24.02;45.23;94929.75;5063364;28;20176;-58
2022/12/17 13:48:59;;;;;;;5.20;3.30;;;;;;;23.96;45.54;94937.28;5062831;28;20049;-60
2022/12/17 13:51:29;;;;;;;4.57;3.15;;;;;;;23.87;45.42;94940.34;5045385;28;20036;-60
2022/12/17 13:53:56;;;;;;;4.63;3.00;;;;;;;24.03;45.41;94942.13;5041617;28;20466;-60
2022/12/17 13:56:32;;;;;;;6.68;3.58;;;;;;;23.85;45.20;94933.19;5038944;28;20033;-61
2022/12/17 13:58:58;;;;;;;4.45;3.20;;;;;;;23.31;45.80;94856.22;5038921;28;20123;-60
2022/12/17 14:01:25;;;;;;;5.40;3.55;;;;;;;23.84;44.90;94918.09;5040840;28;20490;-60
2022/12/17 14:04:00;;;;;;;5.28;3.60;;;;;;;23.44;45.31;94894.50;5064490;28;20492;-60
2022/12/17 14:06:28;;;;;;;4.88;3.40;;;;;;;23.96;44.82;94920.91;5042427;28;20294;-60
2022/12/17 14:08:54;;;;;;;6.10;3.65;;;;;;;23.32;44.87;94868.59;5061389;28;20048;-59
2022/12/17 14:14:23;;;;;;;4.88;3.25;;;;;;;23.92;45.30;94952.44;5060829;28;20515;-59
2022/12/17 14:16:48;;;;;;;6.18;3.30;;;;;;;23.78;45.31;94958.31;5044340;28;20052;-59
2022/12/17 14:19:14;;;;;;;5.18;3.20;;;;;;;23.76;45.83;94941.72;5062690;28;20044;-60
2022/12/17 14:21:40;;;;;;;6.60;3.40;;;;;;;23.95;44.97;94968.50;5060384;28;20044;-59
2022/12/17 14:24:05;;;;;;;13.98;3.20;;;;;;;23.89;44.75;94948.75;5083345;28;20044;-59
2022/12/17 14:26:31;;;;;;;5.72;3.10;;;;;;;23.02;44.99;94846.13;5048668;28;20036;-59
2022/12/17 14:28:56;;;;;;;5.85;3.17;;;;;;;23.41;45.88;94941.84;5048609;28;20045;-59
2022/12/17 14:31:24;;;;;;;5.65;3.45;;;;;;;23.92;44.52;94969.53;5066593;28;20515;-60
2022/12/17 14:34:09;;;;;;;6.53;3.53;;;;;;;23.57;44.72;94949.09;5034235;28;20068;-60
2022/12/17 14:36:39;;;;;;;6.80;3.38;;;;;;;23.68;44.62;94970.84;5048593;28;20029;-60
2022/12/17 14:39:17;;;;;;;4.45;3.40;;;;;;;23.54;44.86;94969.94;5031434;28;20598;-59
2022/12/17 14:44:27;;;;;;;5.32;3.38;;;;;;;23.63;44.96;94979.75;5050329;28;20055;-60
2022/12/17 14:47:25;;;;;;;5.32;3.22;;;;;;;23.70;45.07;94979.22;5052678;28;20040;-60
2022/12/17 14:49:55;;;;;;;6.93;3.80;;;;;;;23.79;45.48;95003.44;5065386;28;20106;-59
2022/12/17 14:52:36;;;;;;;5.35;3.65;;;;;;;23.77;45.66;94989.56;5071942;28;20035;-59
2022/12/17 14:55:23;;;;;;;7.07;3.45;;;;;;;23.21;45.04;94906.84;5069333;28;20052;-59
2022/12/17 14:57:52;;;;;;;4.93;3.25;;;;;;;23.86;44.72;94981.78;5066919;28;20048;-60
2022/12/17 15:00:18;;;;;;;5.10;3.35;;;;;;;23.81;45.30;94992.72;5031860;28;20044;-60
2022/12/17 15:02:45;;;;;;;5.93;3.25;;;;;;;23.53;45.20;94937.75;5056390;28;20033;-59
2022/12/17 15:05:14;;;;;;;7.18;4.05;;;;;;;23.62;46.09;94994.66;5049049;28;20045;-60
2022/12/17 15:07:39;;;;;;;5.30;3.60;;;;;;;23.68;45.99;94981.75;5066483;28;20036;-59
2022/12/17 15:10:10;;;;;;;4.85;3.30;;;;;;;23.55;45.81;94965.22;5066043;28;20090;-59
2022/12/17 15:12:35;;;;;;;6.82;3.35;;;;;;;23.59;45.65;94979.31;5073709;28;20182;-60
2022/12/17 15:15:00;;;;;;;4.80;3.40;;;;;;;23.38;45.96;94981.00;5067291;28;20082;-60
2022/12/17 15:17:26;;;;;;;6.28;3.42;;;;;;;22.86;46.23;94913.59;5065842;28;20045;-60
2022/12/17 15:19:51;;;;;;;5.10;3.33;;;;;;;23.46;46.45;95025.53;5066104;28;20040;-60
2022/12/17 15:22:17;;;;;;;4.50;3.28;;;;;;;23.64;45.96;95020.16;5065696;28;20025;-60
2022/12/17 15:24:43;;;;;;;5.53;3.78;;;;;;;22.61;44.98;94839.31;5065985;28;20106;-59
2022/12/17 15:27:17;;;;;;;4.65;3.28;;;;;;;23.92;45.23;95024.09;5074885;28;20048;-60
2022/12/17 15:29:43;;;;;;;4.30;3.38;;;;;;;24.06;44.33;95011.28;5065551;28;20144;-60
2022/12/17 15:32:19;;;;;;;6.40;3.40;;;;;;;23.59;45.83;95028.38;5044784;28;20186;-60
2022/12/17 15:34:45;;;;;;;6.88;3.80;;;;;;;23.71;45.76;95024.34;5063366;28;20119;-60
2022/12/17 15:37:11;;;;;;;5.28;3.25;;;;;;;23.67;45.55;95048.41;5047079;28;20107;-59
2022/12/17 15:39:36;;;;;;;6.63;3.55;;;;;;;23.05;45.62;94954.06;5048085;28;20120;-60
2022/12/17 15:44:45;;;;;;;5.25;3.35;;;;;;;23.59;45.48;95033.84;5066024;28;20054;-60
2022/12/17 15:47:11;;;;;;;6.03;3.40;;;;;;;24.01;43.91;95033.94;5047347;28;20044;-60
2022/12/17 15:49:36;;;;;;;5.30;3.50;;;;;;;23.82;44.56;95021.50;5066130;28;20032;-60
2022/12/17 15:52:02;;;;;;;5.57;3.55;;;;;;;23.80;44.66;95037.63;5066566;28;20024;-60
2022/12/17 15:54:27;;;;;;;4.72;3.78;;;;;;;23.81;44.63;95034.41;5047802;28;20044;-60
2022/12/17 15:56:53;;;;;;;6.10;3.35;;;;;;;23.57;44.52;95022.69;5047479;28;20049;-60
2022/12/17 15:59:18;;;;;;;5.65;3.50;;;;;;;23.55;45.11;95033.38;5048019;28;20124;-60
2022/12/17 16:01:44;;;;;;;6.20;3.50;;;;;;;23.59;44.48;95040.03;5046963;28;20420;-59
2022/12/17 16:04:09;;;;;;;6.40;3.67;;;;;;;23.51;45.26;95054.72;5031784;28;20086;-60
2022/12/17 16:06:35;;;;;;;5.05;3.40;;;;;;;23.74;44.38;95056.03;5064939;28;20516;-60
2022/12/17 16:09:00;;;;;;;4.93;3.42;;;;;;;23.85;43.85;95061.38;5065283;28;20500;-60
2022/12/17 16:11:25;;;;;;;6.07;3.47;;;;;;;23.97;43.52;95068.94;5064526;28;20499;-60
2022/12/17 16:13:54;;;;;;;4.43;3.13;;;;;;;23.72;43.71;95042.91;5047600;28;20440;-60
2022/12/17 16:16:20;;;;;;;6.03;3.63;;;;;;;23.62;44.39;95068.25;5065941;28;20028;-61
2022/12/17 16:18:45;;;;;;;4.63;3.50;;;;;;;23.68;43.75;95058.06;5047005;28;20048;-60
2022/12/17 16:21:11;;;;;;;5.30;3.58;;;;;;;23.04;44.36;94958.03;5064597;28;20507;-61
2022/12/17 16:23:36;;;;;;;6.20;3.53;;;;;;;23.48;44.61;95061.19;5046446;28;20512;-61
2022/12/17 16:26:03;;;;;;;4.30;3.40;;;;;;;23.62;44.09;95071.00;5063922;28;20047;-60
2022/12/17 16:28:28;;;;;;;5.18;3.28;;;;;;;23.66;43.80;95087.81;5018477;28;20090;-61
2022/12/17 16:31:01;;;;;;;5.57;3.40;;;;;;;23.87;43.70;95098.53;5045735;28;20040;-61
2022/12/17 16:33:31;;;;;;;4.32;3.33;;;;;;;23.74;43.50;95094.22;5046551;28;20501;-60
2022/12/17 16:35:56;;;;;;;5.13;3.07;;;;;;;23.56;43.18;95051.22;5064999;28;20116;-60
2022/12/17 16:38:21;;;;;;;3.83;3.20;;;;;;;23.70;43.78;95099.19;5064073;28;21383;-60
2022/12/17 16:40:47;;;;;;;3.92;3.08;;;;;;;24.00;43.06;95106.81;5026504;28;20044;-60
2022/12/17 16:43:12;;;;;;;4.53;3.35;;;;;;;23.37;43.96;95068.72;5056071;28;20035;-60
2022/12/17 16:45:56;;;;;;;4.57;3.13;;;;;;;23.59;43.69;95094.53;5064438;28;20435;-60
2022/12/17 16:48:21;;;;;;;5.18;3.35;;;;;;;23.69;43.34;95108.63;5063852;28;20394;-60
2022/12/17 16:50:47;;;;;;;4.68;3.38;;;;;;;23.67;43.45;95098.22;5051354;28;20043;-60
2022/12/17 16:53:13;;;;;;;5.03;3.33;;;;;;;23.71;43.61;95089.78;5046689;28;20040;-60
2022/12/17 16:55:47;;;;;;;4.72;3.40;;;;;;;23.86;42.92;95101.03;5045533;28;20555;-60
2022/12/17 16:58:13;;;;;;;3.72;3.00;;;;;;;23.75;43.35;95106.59;5064218;28;20036;-60
2022/12/17 17:00:39;;;;;;;4.45;3.13;;;;;;;23.59;43.73;95118.34;5064278;28;20535;-60
2022/12/17 17:03:04;;;;;;;6.00;3.30;;;;;;;23.77;43.27;95115.75;5045307;28;20123;-60
2022/12/17 17:05:31;;;;;;;5.28;3.42;;;;;;;23.41;43.44;95094.47;5064562;28;20048;-61
2022/12/17 17:07:57;;;;;;;4.50;3.35;;;;;;;23.67;43.83;95125.47;5046105;28;20119;-60
2022/12/17 17:10:23;;;;;;;4.45;3.08;;;;;;;23.74;43.02;95127.66;5063909;28;20586;-60
2022/12/17 17:12:50;;;;;;;4.25;3.08;;;;;;;23.55;43.14;95087.91;5063502;28;20060;-60
2022/12/17 17:15:16;;;;;;;4.45;3.28;;;;;;;23.63;42.61;95094.25;5063748;28;20101;-60
2022/12/17 17:17:41;;;;;;;4.15;3.15;;;;;;;23.60;43.15;95117.09;5064058;28;20532;-60
2022/12/17 17:20:07;;;;;;;4.50;3.50;;;;;;;23.58;42.66;95108.69;5046843;28;20067;-60
2022/12/17 17:22:33;;;;;;;5.00;3.25;;;;;;;23.73;42.55;95136.34;5046720;28;20078;-60
2022/12/17 17:24:58;;;;;;;5.00;3.30;;;;;;;22.92;42.59;95035.56;5064044;28;20114;-60
2022/12/17 17:27:24;;;;;;;5.15;3.55;;;;;;;23.40;43.11;95109.31;5063614;28;20044;-60
2022/12/17 17:29:49;;;;;;;6.57;3.72;;;;;;;23.71;42.88;95149.75;5063721;28;20036;-60
2022/12/17 17:32:14;;;;;;;4.07;3.38;;;;;;;23.63;42.69;95176.81;5045158;28;20052;-61
2022/12/17 17:34:40;;;;;;;4.60;3.22;;;;;;;23.38;43.16;95155.44;5045726;28;20036;-60
2022/12/17 17:37:05;;;;;;;4.13;3.05;;;;;;;23.62;43.15;95158.97;5064212;28;20059;-61
2022/12/17 17:39:32;;;;;;;4.13;3.03;;;;;;;23.12;43.19;95084.28;5064496;28;20098;-60
2022/12/17 17:41:58;;;;;;;3.80;3.30;;;;;;;23.62;42.88;95169.13;5063436;28;20084;-61
2022/12/17 17:44:24;;;;;;;3.97;3.30;;;;;;;23.55;42.46;95164.22;5063622;28;20123;-60
2022/12/17 17:46:49;;;;;;;5.43;3.40;;;;;;;23.71;42.36;95166.13;5063363;28;20481;-59
2022/12/17 17:49:15;;;;;;;5.10;3.03;;;;;;;23.48;42.39;95170.22;5064553;28;20028;-60
2022/12/17 17:51:41;;;;;;;4.30;3.20;;;;;;;23.63;42.88;95170.59;5063798;28;20430;-59
2022/12/17 17:54:06;;;;;;;4.38;3.20;;;;;;;23.56;42.57;95160.25;5029228;28;20049;-59
2022/12/17 17:56:33;;;;;;;5.13;3.20;;;;;;;23.56;42.42;95187.53;5063158;28;20044;-60
2022/12/17 17:59:02;;;;;;;4.47;3.10;;;;;;;23.54;42.18;95163.50;5038379;28;20053;-60
2022/12/17 18:01:30;;;;;;;4.60;3.28;;;;;;;23.71;42.43;95179.75;5065643;28;20033;-62
2022/12/17 18:03:56;;;;;;;4.35;3.15;;;;;;;23.40;43.08;95196.53;5049962;28;20168;-61
2022/12/17 18:06:22;;;;;;;3.75;3.00;;;;;;;23.36;42.74;95178.97;5067574;28;20475;-61
2022/12/17 18:08:47;;;;;;;4.13;3.30;;;;;;;23.61;42.23;95201.09;5067639;28;20044;-59
2022/12/17 18:11:14;;;;;;;5.03;3.60;;;;;;;23.21;43.29;95190.19;5065709;28;20044;-60
2022/12/17 18:13:55;;;;;;;5.68;3.42;;;;;;;23.86;42.22;95215.59;5065894;28;20106;-60
2022/12/17 18:16:37;;;;;;;7.03;3.70;;;;;;;23.70;42.22;95206.25;5051219;28;20511;-61
2022/12/17 18:19:05;;;;;;;6.07;3.05;;;;;;;23.68;42.55;95221.66;5064958;28;20123;-61
2022/12/17 18:21:30;;;;;;;9.25;3.35;;;;;;;23.69;43.00;95228.59;5042923;28;20500;-60
2022/12/17 18:23:59;;;;;;;5.95;3.10;;;;;;;23.52;42.75;95230.66;5067734;28;20053;-61
2022/12/17 18:26:25;;;;;;;6.07;3.38;;;;;;;23.62;42.44;95226.38;5066412;28;20050;-60
2022/12/17 18:28:50;;;;;;;6.30;3.58;;;;;;;23.45;43.38;95248.28;5066652;28;20480;-61
2022/12/17 18:31:25;;;;;;;6.53;3.72;;;;;;;23.69;42.65;95255.84;5046810;28;20047;-61
2022/12/17 18:33:53;;;;;;;6.50;3.30;;;;;;;23.65;42.81;95249.94;5048353;28;20185;-61
2022/12/17 18:36:26;;;;;;;7.28;3.63;;;;;;;23.05;42.17;95138.53;5066334;28;20080;-60
2022/12/17 18:38:59;;;;;;;6.40;3.55;;;;;;;23.61;43.04;95260.34;5063802;28;20037;-61
2022/12/17 18:44:08;;;;;;;5.80;3.40;;;;;;;22.73;43.09;95140.13;5065028;28;20440;-60
2022/12/17 18:46:34;;;;;;;5.50;3.60;;;;;;;23.56;43.29;95291.09;5066153;28;20029;-59
2022/12/17 18:49:01;;;;;;;7.13;3.45;;;;;;;23.87;42.36;95273.09;5036906;28;20048;-60
2022/12/17 18:51:27;;;;;;;5.40;3.00;;;;;;;23.63;43.29;95274.19;5065355;28;20052;-60
2022/12/17 18:53:56;;;;;;;5.85;3.70;;;;;;;23.63;42.87;95279.66;5064473;28;20512;-60
2022/12/17 18:56:21;;;;;;;5.53;3.70;;;;;;;23.85;42.84;95290.47;5064253;28;20040;-60
2022/12/17 18:58:47;;;;;;;5.57;3.55;;;;;;;23.47;43.35;95288.69;5065499;28;20145;-60
2022/12/17 19:01:38;;;;;;;5.85;3.50;;;;;;;23.62;42.65;95300.00;5065884;28;20047;-60
2022/12/17 19:04:05;;;;;;;5.43;3.20;;;;;;;23.48;42.89;95284.69;5057879;28;20045;-60
2022/12/17 19:06:31;;;;;;;14.68;8.60;;;;;;;23.35;42.62;95303.59;5067418;28;20036;-60
2022/12/17 19:08:57;;;;;;;6.55;4.20;;;;;;;23.56;42.78;95280.94;5047748;28;20524;-58
2022/12/17 19:11:22;;;;;;;5.57;3.53;;;;;;;23.96;41.50;95283.69;5064775;28;20048;-59
2022/12/17 19:13:48;;;;;;;5.68;3.33;;;;;;;23.85;42.15;95315.75;5066448;28;20052;-60
2022/12/17 19:16:16;;;;;;;5.45;3.45;;;;;;;23.54;41.59;95222.69;5047834;28;20031;-60
2022/12/17 19:18:41;;;;;;;6.35;4.38;;;;;;;24.09;41.79;95304.94;5062110;28;20404;-59
2022/12/17 19:21:09;;;;;;;6.18;3.90;;;;;;;22.72;42.18;95143.34;5064343;28;20040;-59
2022/12/17 19:23:34;;;;;;;5.57;3.17;;;;;;;24.17;41.29;95325.72;5063902;28;20098;-60
2022/12/17 19:26:14;;;;;;;4.78;3.40;;;;;;;24.29;41.22;95335.31;5047555;28;20497;-60
2022/12/17 19:28:41;;;;;;;6.70;3.63;;;;;;;24.41;41.14;95342.22;5064337;28;20040;-60
2022/12/17 19:31:07;;;;;;;4.90;3.78;;;;;;;24.52;41.00;95336.66;5038680;28;20032;-60
2022/12/17 19:33:32;;;;;;;6.07;3.88;;;;;;;24.26;41.65;95341.03;5047354;28;20086;-60
2022/12/17 19:36:00;;;;;;;6.53;3.90;;;;;;;24.18;41.87;95335.38;5066267;28;20044;-60
2022/12/17 19:38:25;;;;;;;6.20;3.58;;;;;;;23.98;42.29;95349.41;5064959;28;20044;-60
2022/12/17 19:40:51;;;;;;;5.30;3.70;;;;;;;23.93;42.00;95320.19;5066964;28;20058;-59
2022/12/17 19:43:17;;;;;;;4.85;3.63;;;;;;;23.91;41.99;95344.47;5049593;28;20029;-59
2022/12/17 19:45:42;;;;;;;5.65;3.85;;;;;;;23.34;42.23;95247.59;5047739;28;20071;-59
2022/12/17 19:48:07;;;;;;;5.22;3.38;;;;;;;24.03;41.80;95337.69;5050294;28;20490;-58
2022/12/17 19:50:33;;;;;;;5.97;3.65;;;;;;;23.07;41.36;95158.56;5065835;28;20049;-60
2022/12/17 19:52:58;;;;;;;5.85;3.90;;;;;;;24.28;41.49;95352.94;5047138;28;20316;-59
2022/12/17 19:55:25;;;;;;;5.40;4.00;;;;;;;24.25;41.57;95351.22;5061072;28;20055;-60
2022/12/17 19:57:51;;;;;;;5.07;3.60;;;;;;;24.05;41.60;95332.50;5059236;28;20084;-59
2022/12/17 20:00:17;;;;;;;6.43;3.75;;;;;;;24.12;41.27;95334.66;5028419;28;20148;-59
2022/12/17 20:02:43;;;;;;;5.32;3.72;;;;;;;23.70;40.96;95254.63;5053352;28;20052;-59
2022/12/17 20:05:09;;;;;;;6.07;3.90;;;;;;;24.61;40.66;95366.38;5052057;28;20044;-59
2022/12/17 20:07:39;;;;;;;4.95;3.50;;;;;;;23.96;41.74;95338.25;5043394;28;20025;-58
2022/12/17 20:10:06;;;;;;;5.68;3.60;;;;;;;24.40;41.33;95370.75;5040909;28;20032;-59
2022/12/17 20:12:32;;;;;;;14.55;7.68;;;;;;;24.34;41.38;95375.50;5063176;28;20054;-59
2022/12/17 20:14:58;;;;;;;19.38;9.10;;;;;;;24.13;41.51;95370.91;5062800;28;20048;-59
2022/12/17 20:17:25;;;;;;;36.83;15.75;;;;;;;24.14;41.78;95392.22;5063822;28;20040;-58
2022/12/17 20:19:53;;;;;;;37.17;16.52;;;;;;;24.39;41.64;95393.81;5048227;28;20036;-60
2022/12/17 20:22:20;;;;;;;;;;;;;;;24.46;41.53;95398.75;5055018;28;20049;-59
2022/12/17 20:24:46;;;;;;;35.00;16.50;;;;;;;24.33;41.04;95406.75;5044718;28;20320;-60
2022/12/17 20:27:13;;;;;;;31.77;15.27;;;;;;;23.65;41.01;95291.56;5046180;28;20072;-60
2022/12/17 20:29:38;;;;;;;35.17;15.60;;;;;;;24.25;41.81;95416.72;5022869;28;20124;-60
2022/12/17 20:32:05;;;;;;;30.70;14.02;;;;;;;24.42;41.81;95409.19;5045015;28;20036;-60
2022/12/17 20:34:31;;;;;;;32.30;14.85;;;;;;;24.35;41.36;95420.66;5030300;28;20045;-60
2022/12/17 20:36:57;;;;;;;30.98;14.73;;;;;;;24.58;40.88;95411.06;5045643;28;20456;-60
2022/12/17 20:39:23;;;;;;;28.55;13.13;;;;;;;24.37;41.49;95412.72;5065038;28;20044;-60
2022/12/17 20:41:50;;;;;;;31.15;13.77;;;;;;;24.05;41.95;95419.81;5063072;28;20123;-59
2022/12/17 20:44:16;;;;;;;27.73;13.25;;;;;;;24.05;41.94;95413.59;5065082;28;20052;-59
2022/12/17 20:46:42;;;;;;;28.05;13.10;;;;;;;24.35;41.38;95431.59;5052971;28;20037;-59
2022/12/17 20:49:12;;;;;;;24.80;13.07;;;;;;;24.07;41.20;95394.75;5046297;28;20036;-61
2022/12/17 20:51:37;;;;;;;26.73;12.75;;;;;;;24.42;41.10;95431.78;5063530;28;20044;-59
2022/12/17 20:54:07;;;;;;;27.17;11.93;;;;;;;24.29;41.69;95443.72;5058046;28;20135;-59
2022/12/17 20:56:33;;;;;;;25.05;13.15;;;;;;;24.40;41.80;95449.91;5046000;28;20112;-60
2022/12/17 20:59:01;;;;;;;23.80;11.63;;;;;;;23.82;42.16;95417.66;5044800;28;20044;-60
2022/12/17 21:01:41;;;;;;;24.10;11.65;;;;;;;23.79;42.09;95424.13;5064008;28;20036;-60
2022/12/17 21:04:24;;;;;;;22.98;11.55;;;;;;;23.59;42.34;95437.31;5017846;28;20565;-60
2022/12/17 21:07:05;;;;;;;23.90;11.73;;;;;;;23.48;43.08;95456.41;5053268;28;20048;-59
2022/12/17 21:09:48;;;;;;;24.20;11.27;;;;;;;22.51;43.28;95347.06;5046061;28;20284;-59
2022/12/17 21:16:12;;;;;;;21.75;11.25;;;;;;;22.41;43.79;95360.69;5035850;28;20174;-60
2022/12/17 21:18:53;;;;;;;23.15;11.45;;;;;;;23.05;44.01;95460.69;5033116;28;20124;-60
2022/12/17 21:21:34;;;;;;;23.23;11.05;;;;;;;22.89;44.11;95453.22;5042630;28;20063;-59
2022/12/17 21:24:20;;;;;;;21.23;10.95;;;;;;;22.86;44.26;95486.16;5021025;28;20065;-59
2022/12/17 21:27:00;;;;;;;22.10;10.98;;;;;;;22.72;44.46;95480.94;5007228;28;20041;-60
2022/12/17 21:29:32;;;;;;;;;;;;;;;22.63;44.83;95489.34;5023602;28;20065;-59
2022/12/17 21:32:39;;;;;;;21.75;10.57;;;;;;;22.49;45.01;95473.97;5004236;28;20768;-59
2022/12/17 21:35:04;;;;;;;22.45;10.63;;;;;;;22.34;44.72;95462.56;5007652;28;20045;-60
2022/12/17 21:38:18;;;;;;;21.92;10.52;;;;;;;22.40;45.01;95476.94;5023460;28;20465;-59
2022/12/17 21:43:00;;;;;;;19.58;10.38;;;;;;;22.50;44.99;95491.81;5019862;28;20041;-59
2022/12/17 21:44:41;;;;;;;19.60;9.57;;;;;;;22.38;44.84;95490.28;5001326;28;20062;-59
2022/12/17 21:47:21;;;;;;;18.60;9.93;;;;;;;21.57;45.21;95390.13;5013428;28;20041;-59
2022/12/17 21:50:16;;;;;;;;;;;;;;;22.28;45.21;95497.19;5012287;28;20057;-59
2022/12/17 21:52:50;;;;;;;18.92;9.57;;;;;;;22.23;45.50;95506.06;5051467;28;19917;-61
2022/12/17 21:59:24;;;;;;;18.38;9.40;;;;;;;22.07;45.55;95509.44;4998344;28;20176;-59
2022/12/17 22:01:50;;;;;;;18.55;9.70;;;;;;;22.02;45.65;95507.44;5028856;28;20072;-59
2022/12/17 22:04:50;;;;;;;20.73;10.23;;;;;;;21.86;45.73;95476.72;5033147;28;20116;-59
2022/12/17 22:07:32;;;;;;;;;;;;;;;22.09;45.51;95507.00;5003402;28;20465;-59
2022/12/17 22:10:27;;;;;;;17.85;10.00;;;;;;;21.17;45.62;95384.94;5040894;28;20164;-59
2022/12/17 22:16:41;;;;;;;18.38;9.93;;;;;;;21.95;45.79;95518.78;5014443;28;20641;-59
2022/12/17 22:22:51;;;;;;;16.98;9.00;;;;;;;21.85;46.02;95522.19;4988524;28;20640;-59
2022/12/17 22:25:48;;;;;;;18.77;9.60;;;;;;;21.91;45.81;95527.66;5016319;28;20583;-59
2022/12/17 22:34:51;;;;;;;17.67;9.50;;;;;;;21.79;46.06;95531.53;5012205;28;20043;-60
2022/12/17 22:37:29;;;;;;;17.13;9.45;;;;;;;21.75;46.19;95525.59;5011010;28;20071;-59
2022/12/17 22:40:48;;;;;;;15.68;8.88;;;;;;;21.74;46.08;95535.00;5045952;28;20048;-59
2022/12/17 22:43:32;;;;;;;15.55;8.50;;;;;;;21.59;46.17;95518.09;5010062;28;20067;-59
2022/12/17 22:46:30;;;;;;;16.00;8.25;;;;;;;21.71;46.23;95530.53;4993219;28;20174;-59
2022/12/17 22:49:10;;;;;;;15.38;8.38;;;;;;;21.74;46.04;95535.00;5023377;28;20049;-59
2022/12/17 22:52:02;;;;;;;18.45;8.90;;;;;;;21.74;46.01;95546.59;5016537;28;20064;-59
2022/12/17 22:54:59;;;;;;;14.18;8.35;;;;;;;21.70;46.30;95545.34;5031360;28;20037;-59
2022/12/17 22:58:16;;;;;;;14.35;8.23;;;;;;;21.68;46.21;95550.53;5030161;28;20029;-60
2022/12/17 23:01:53;;;;;;;16.30;8.68;;;;;;;21.64;46.15;95558.91;5021082;28;20068;-59
2022/12/17 23:04:20;;;;;;;13.77;7.75;;;;;;;20.87;46.21;95436.59;5016344;28;20053;-60
2022/12/17 23:10:08;;;;;;;14.45;7.80;;;;;;;21.63;46.16;95556.66;5025336;28;20133;-60
2022/12/17 23:12:55;;;;;;;14.65;7.65;;;;;;;21.66;46.30;95558.41;5046363;28;20239;-60
2022/12/17 23:22:54;;;;;;;13.25;7.18;;;;;;;21.57;46.39;95583.06;5065364;28;20103;-61
2022/12/17 23:28:48;;;;;;;13.25;7.90;;;;;;;21.61;46.08;95586.28;5018411;28;20413;-60
2022/12/17 23:41:41;;;;;;;13.73;7.50;;;;;;;21.47;46.38;95608.91;5046357;28;20119;-60
2022/12/17 23:44:25;;;;;;;14.05;7.32;;;;;;;21.50;46.30;95635.13;5063641;28;20410;-59
2022/12/17 23:47:19;;;;;;;12.57;7.10;;;;;;;21.52;46.32;95627.22;5064607;28;20021;-59
2022/12/17 23:53:22;;;;;;;11.88;6.78;;;;;;;21.28;46.34;95607.72;5051657;28;20048;-61
2022/12/17 23:56:43;;;;;;;14.27;7.50;;;;;;;21.50;46.30;95641.28;5069800;28;20036;-59
2022/12/17 23:59:50;;;;;;;10.98;7.20;;;;;;;21.49;46.54;95641.78;5061046;28;20075;-59
